createdAt,value
2024-01-16T00:00:55.691Z,19.83
2024-01-16T00:03:22.200Z,19.83
2024-01-16T00:05:48.784Z,19.82
2024-01-16T00:08:15.496Z,19.80
2024-01-16T00:10:42.199Z,19.79
2024-01-16T00:13:08.931Z,19.79
2024-01-16T00:15:35.416Z,19.77
2024-01-16T00:18:02.035Z,19.78
2024-01-16T00:20:28.600Z,19.78
2024-01-16T00:22:55.097Z,19.77
2024-01-16T00:25:21.486Z,19.77
2024-01-16T00:27:48.011Z,19.77
2024-01-16T00:30:14.766Z,19.77
2024-01-16T00:32:41.264Z,19.77
2024-01-16T00:35:07.951Z,19.78
2024-01-16T00:37:34.418Z,19.80
2024-01-16T00:40:00.834Z,19.79
2024-01-16T00:42:28.331Z,19.80
2024-01-16T00:44:54.928Z,19.79
2024-01-16T00:47:21.689Z,19.78
2024-01-16T00:49:48.654Z,19.79
2024-01-16T00:52:15.078Z,19.81
2024-01-16T00:54:42.986Z,19.80
2024-01-16T00:57:09.380Z,19.80
2024-01-16T00:59:35.940Z,19.79
2024-01-16T01:02:02.366Z,19.78
2024-01-16T01:04:28.813Z,19.79
2024-01-16T01:06:55.292Z,19.79
2024-01-16T01:09:21.822Z,19.78
2024-01-16T01:11:48.342Z,19.77
2024-01-16T01:14:14.998Z,19.78
2024-01-16T01:16:41.462Z,19.77
2024-01-16T01:19:08.181Z,19.75
2024-01-16T01:21:36.539Z,19.74
2024-01-16T01:24:02.976Z,19.74
2024-01-16T01:26:29.443Z,19.75
2024-01-16T01:28:55.966Z,19.74
2024-01-16T01:31:22.843Z,19.74
2024-01-16T01:33:49.416Z,19.72
2024-01-16T01:36:15.932Z,19.70
2024-01-16T01:38:42.735Z,19.67
2024-01-16T01:41:09.845Z,19.65
2024-01-16T01:43:36.389Z,19.62
2024-01-16T01:46:19.189Z,19.62
2024-01-16T01:48:47.265Z,19.65
2024-01-16T01:51:14.849Z,19.67
2024-01-16T01:53:43.208Z,19.69
2024-01-16T01:56:12.568Z,19.71
2024-01-16T01:58:39.626Z,19.73
2024-01-16T02:01:07.357Z,19.73
2024-01-16T02:03:36.416Z,19.74
2024-01-16T02:06:03.371Z,19.74
2024-01-16T02:08:30.032Z,19.73
2024-01-16T02:10:56.481Z,19.73
2024-01-16T02:13:24.694Z,19.71
2024-01-16T02:15:51.573Z,19.72
2024-01-16T02:18:18.411Z,19.71
2024-01-16T02:20:45.640Z,19.70
2024-01-16T02:23:14.529Z,19.69
2024-01-16T02:25:44.667Z,19.68
2024-01-16T02:28:11.410Z,19.68
2024-01-16T02:30:37.965Z,19.70
2024-01-16T02:33:05.053Z,19.75
2024-01-16T02:35:31.758Z,19.75
2024-01-16T02:37:58.371Z,19.72
2024-01-16T02:40:24.805Z,19.69
2024-01-16T02:42:51.265Z,19.68
2024-01-16T02:45:18.750Z,19.70
2024-01-16T02:47:45.409Z,19.70
2024-01-16T02:50:12.227Z,19.71
2024-01-16T02:52:38.715Z,19.71
2024-01-16T02:55:06.305Z,19.69
2024-01-16T02:57:32.756Z,19.69
2024-01-16T02:59:59.247Z,19.68
2024-01-16T03:02:25.708Z,19.67
2024-01-16T03:04:52.219Z,19.68
2024-01-16T03:07:18.660Z,19.68
2024-01-16T03:09:45.140Z,19.66
2024-01-16T03:12:11.683Z,19.65
2024-01-16T03:14:40.104Z,19.63
2024-01-16T03:17:07.699Z,19.61
2024-01-16T03:19:34.230Z,19.56
2024-01-16T03:22:00.755Z,19.55
2024-01-16T03:24:27.806Z,19.53
2024-01-16T03:26:54.858Z,19.54
2024-01-16T03:29:21.628Z,19.54
2024-01-16T03:31:49.035Z,19.56
2024-01-16T03:34:15.604Z,19.57
2024-01-16T03:36:42.042Z,19.58
2024-01-16T03:39:10.079Z,19.59
2024-01-16T03:41:36.772Z,19.57
2024-01-16T03:44:03.507Z,19.57
2024-01-16T03:46:30.394Z,19.55
2024-01-16T03:48:57.036Z,19.54
2024-01-16T03:51:23.552Z,19.55
2024-01-16T03:53:49.965Z,19.55
2024-01-16T03:56:17.465Z,19.54
2024-01-16T03:58:44.102Z,19.53
2024-01-16T04:01:10.622Z,19.52
2024-01-16T04:03:37.229Z,19.52
2024-01-16T04:06:03.913Z,19.54
2024-01-16T04:08:30.501Z,19.52
2024-01-16T04:10:56.937Z,19.53
2024-01-16T04:13:23.418Z,19.53
2024-01-16T04:15:50.125Z,19.55
2024-01-16T04:18:16.901Z,19.54
2024-01-16T04:20:43.410Z,19.52
2024-01-16T04:23:09.903Z,19.52
2024-01-16T04:25:36.506Z,19.52
2024-01-16T04:28:03.604Z,19.50
2024-01-16T04:30:30.280Z,19.52
2024-01-16T04:32:56.844Z,19.51
2024-01-16T04:35:23.614Z,19.50
2024-01-16T04:37:50.097Z,19.48
2024-01-16T04:40:16.517Z,19.47
2024-01-16T04:42:44.249Z,19.48
2024-01-16T04:45:10.667Z,19.48
2024-01-16T04:47:37.274Z,19.45
2024-01-16T04:50:05.121Z,19.41
2024-01-16T04:52:31.568Z,19.41
2024-01-16T04:54:58.139Z,19.43
2024-01-16T04:57:24.549Z,19.43
2024-01-16T04:59:51.385Z,19.45
2024-01-16T05:02:18.500Z,19.45
2024-01-16T05:04:45.210Z,19.45
2024-01-16T05:07:11.624Z,19.47
2024-01-16T05:09:38.058Z,19.49
2024-01-16T05:12:04.705Z,19.51
2024-01-16T05:14:31.362Z,19.50
2024-01-16T05:16:57.861Z,19.50
2024-01-16T05:19:24.376Z,19.49
2024-01-16T05:21:51.110Z,19.51
2024-01-16T05:24:17.532Z,19.51
2024-01-16T05:26:43.928Z,19.51
2024-01-16T05:29:10.368Z,19.50
2024-01-16T05:31:43.375Z,19.50
2024-01-16T05:34:10.568Z,19.50
2024-01-16T05:36:37.525Z,19.48
2024-01-16T05:39:04.064Z,19.47
2024-01-16T05:41:34.916Z,19.47
2024-01-16T05:44:01.855Z,19.48
2024-01-16T05:46:28.277Z,19.51
2024-01-16T05:48:54.858Z,19.53
2024-01-16T05:51:21.484Z,19.54
2024-01-16T05:53:48.231Z,19.54
2024-01-16T05:56:15.248Z,19.54
2024-01-16T05:58:41.697Z,19.54
2024-01-16T06:01:08.178Z,19.55
2024-01-16T06:03:34.651Z,19.55
2024-01-16T06:06:01.386Z,19.54
2024-01-16T06:08:27.982Z,19.53
2024-01-16T06:10:54.392Z,19.52
2024-01-16T06:13:21.084Z,19.53
2024-01-16T06:15:47.493Z,19.52
2024-01-16T06:18:14.139Z,19.52
2024-01-16T06:20:40.707Z,19.52
2024-01-16T06:23:07.692Z,19.51
2024-01-16T06:25:34.126Z,19.51
2024-01-16T06:28:03.396Z,19.50
2024-01-16T06:30:30.729Z,19.48
2024-01-16T06:32:57.487Z,19.48
2024-01-16T06:35:24.673Z,19.50
2024-01-16T06:37:51.123Z,19.51
2024-01-16T06:40:17.534Z,19.50
2024-01-16T06:42:43.911Z,19.48
2024-01-16T06:45:10.544Z,19.48
2024-01-16T06:47:37.047Z,19.48
2024-01-16T06:50:04.590Z,19.48
2024-01-16T06:52:31.051Z,19.48
2024-01-16T06:54:57.572Z,19.46
2024-01-16T06:57:23.958Z,19.47
2024-01-16T06:59:50.778Z,19.47
2024-01-16T07:02:17.253Z,19.47
2024-01-16T07:04:43.626Z,19.50
2024-01-16T07:07:10.043Z,19.49
2024-01-16T07:09:36.472Z,19.47
2024-01-16T07:12:04.891Z,19.46
2024-01-16T07:14:32.111Z,19.46
2024-01-16T07:16:58.697Z,19.46
2024-01-16T07:19:25.220Z,19.46
2024-01-16T07:21:51.746Z,19.46
2024-01-16T07:24:18.183Z,19.45
2024-01-16T07:26:44.687Z,19.45
2024-01-16T07:29:11.142Z,19.44
2024-01-16T07:31:37.684Z,19.42
2024-01-16T07:34:04.300Z,19.38
2024-01-16T07:36:31.550Z,19.37
2024-01-16T07:38:58.956Z,19.37
2024-01-16T07:41:25.483Z,19.38
2024-01-16T07:43:51.925Z,19.40
2024-01-16T07:46:18.907Z,19.43
2024-01-16T07:48:45.646Z,19.42
2024-01-16T07:51:12.095Z,19.41
2024-01-16T07:53:38.587Z,19.40
2024-01-16T07:56:05.808Z,19.40
2024-01-16T07:58:32.292Z,19.40
2024-01-16T08:00:58.817Z,19.39
2024-01-16T08:03:25.280Z,19.39
2024-01-16T08:05:52.164Z,19.38
2024-01-16T08:08:18.742Z,19.38
2024-01-16T08:10:45.263Z,19.36
2024-01-16T08:13:11.741Z,19.32
2024-01-16T08:15:38.120Z,19.31
2024-01-16T08:18:04.996Z,19.29
2024-01-16T08:20:31.712Z,19.28
2024-01-16T08:22:58.154Z,19.27
2024-01-16T08:25:24.659Z,19.25
2024-01-16T08:27:53.009Z,19.26
2024-01-16T08:30:19.586Z,19.24
2024-01-16T08:32:46.078Z,19.23
2024-01-16T08:35:12.769Z,19.22
2024-01-16T08:37:39.286Z,19.22
2024-01-16T08:40:06.364Z,19.22
2024-01-16T08:42:33.053Z,19.21
2024-01-16T08:44:59.481Z,19.22
2024-01-16T08:47:26.039Z,19.26
2024-01-16T08:49:52.912Z,19.28
2024-01-16T08:52:44.818Z,19.29
2024-01-16T08:55:11.214Z,19.30
2024-01-16T08:57:40.438Z,19.30
2024-01-16T09:00:07.162Z,19.29
2024-01-16T09:02:33.635Z,19.30
2024-01-16T09:05:00.287Z,19.32
2024-01-16T09:07:27.645Z,19.32
2024-01-16T09:09:54.670Z,19.31
2024-01-16T09:12:21.087Z,19.32
2024-01-16T09:14:47.490Z,19.32
2024-01-16T09:17:14.100Z,19.31
2024-01-16T09:19:40.643Z,19.31
2024-01-16T09:22:07.093Z,19.31
2024-01-16T09:24:33.545Z,19.31
2024-01-16T09:27:00.070Z,19.30
2024-01-16T09:29:26.526Z,19.30
2024-01-16T09:31:53.035Z,19.29
2024-01-16T09:34:19.473Z,19.29
2024-01-16T09:36:45.893Z,19.30
2024-01-16T09:39:12.409Z,19.31
2024-01-16T09:41:39.124Z,19.29
2024-01-16T09:44:06.248Z,19.28
2024-01-16T09:46:32.951Z,19.29
2024-01-16T09:49:01.048Z,19.27
2024-01-16T09:51:27.593Z,19.26
2024-01-16T09:53:54.158Z,19.26
2024-01-16T09:56:22.718Z,19.24
2024-01-16T09:58:50.218Z,19.23
2024-01-16T10:01:17.075Z,19.21
2024-01-16T10:03:45.765Z,19.21
2024-01-16T10:06:13.215Z,19.21
2024-01-16T10:08:40.555Z,19.19
2024-01-16T10:11:10.058Z,19.20
2024-01-16T10:13:39.760Z,19.20
2024-01-16T10:16:06.215Z,19.22
2024-01-16T10:18:33.554Z,19.20
2024-01-16T10:21:02.691Z,19.17
2024-01-16T10:23:30.147Z,19.16
2024-01-16T10:26:08.767Z,19.18
2024-01-16T10:28:35.891Z,19.19
2024-01-16T10:31:03.790Z,19.20
2024-01-16T10:33:30.751Z,19.19
2024-01-16T10:36:09.408Z,19.19
2024-01-16T10:38:39.041Z,19.21
2024-01-16T10:41:07.167Z,19.20
2024-01-16T10:43:33.867Z,19.18
2024-01-16T10:46:07.915Z,19.18
2024-01-16T10:48:34.360Z,19.16
2024-01-16T10:51:02.004Z,19.19
2024-01-16T10:53:31.738Z,19.20
2024-01-16T10:55:58.225Z,19.22
2024-01-16T10:58:25.362Z,19.20
2024-01-16T11:00:53.412Z,19.21
2024-01-16T11:03:23.865Z,19.20
2024-01-16T11:05:50.787Z,19.22
2024-01-16T11:08:18.594Z,19.23
2024-01-16T11:10:45.900Z,19.24
2024-01-16T11:13:13.568Z,19.24
2024-01-16T11:15:42.353Z,19.24
2024-01-16T11:18:09.357Z,19.26
2024-01-16T11:20:55.424Z,19.24
2024-01-16T11:23:22.607Z,19.21
2024-01-16T11:25:49.076Z,19.20
2024-01-16T11:28:16.829Z,19.16
2024-01-16T11:30:46.675Z,19.16
2024-01-16T11:33:36.342Z,19.17
2024-01-16T11:36:03.130Z,19.16
2024-01-16T11:38:30.989Z,19.18
2024-01-16T11:40:57.563Z,19.16
2024-01-16T11:43:33.287Z,19.12
2024-01-16T11:46:00.279Z,19.15
2024-01-16T11:48:27.103Z,19.20
2024-01-16T11:50:54.124Z,19.23
2024-01-16T11:53:41.323Z,19.23
2024-01-16T11:56:37.573Z,19.24
2024-01-16T11:59:28.854Z,19.23
2024-01-16T12:01:58.780Z,19.25
2024-01-16T12:04:25.150Z,19.27
2024-01-16T12:06:59.093Z,19.27
2024-01-16T12:09:27.058Z,19.28
2024-01-16T12:11:58.677Z,19.29
2024-01-16T12:14:25.273Z,19.28
2024-01-16T12:16:51.684Z,19.30
2024-01-16T12:19:18.205Z,19.30
2024-01-16T12:21:45.593Z,19.29
2024-01-16T12:24:14.798Z,19.29
2024-01-16T12:26:44.795Z,19.29
2024-01-16T12:29:11.306Z,19.26
2024-01-16T12:31:37.735Z,19.26
2024-01-16T12:34:11.010Z,19.26
2024-01-16T12:36:38.835Z,19.25
2024-01-16T12:39:06.667Z,19.24
2024-01-16T12:41:42.896Z,19.22
2024-01-16T12:44:15.766Z,19.22
2024-01-16T12:47:10.135Z,19.24
2024-01-16T12:49:45.587Z,19.23
2024-01-16T12:52:19.565Z,19.23
2024-01-16T12:54:46.457Z,19.22
2024-01-16T12:57:17.716Z,19.23
2024-01-16T12:59:44.458Z,19.23
2024-01-16T13:02:12.625Z,19.25
2024-01-16T13:04:39.237Z,19.26
2024-01-16T13:07:06.636Z,19.26
2024-01-16T13:09:33.256Z,19.25
2024-01-16T13:12:00.132Z,19.25
2024-01-16T13:14:26.946Z,19.25
2024-01-16T13:16:55.463Z,19.26
2024-01-16T13:19:22.561Z,19.24
2024-01-16T13:21:49.866Z,19.22
2024-01-16T13:24:18.436Z,19.22
2024-01-16T13:26:45.095Z,19.22
2024-01-16T13:29:11.537Z,19.24
2024-01-16T13:31:38.077Z,19.25
2024-01-16T13:34:05.507Z,19.26
2024-01-16T13:39:01.319Z,19.28
2024-01-16T13:41:28.837Z,19.27
2024-01-16T13:43:55.376Z,19.28
2024-01-16T13:46:36.767Z,19.29
2024-01-16T13:49:10.115Z,19.28
2024-01-16T13:51:36.743Z,19.27
2024-01-16T13:54:03.186Z,19.25
2024-01-16T13:56:46.359Z,19.25
2024-01-16T13:59:16.032Z,19.25
2024-01-16T14:01:42.455Z,19.25
2024-01-16T14:04:09.524Z,19.26
2024-01-16T14:09:10.782Z,19.25
2024-01-16T14:11:38.718Z,19.27
2024-01-16T14:14:06.224Z,19.27
2024-01-16T14:16:47.854Z,19.26
2024-01-16T14:19:18.424Z,19.25
2024-01-16T14:21:44.874Z,19.25
2024-01-16T14:24:11.625Z,19.24
2024-01-16T14:26:38.489Z,19.24
2024-01-16T14:29:04.991Z,19.22
2024-01-16T14:31:31.336Z,19.22
2024-01-16T14:33:58.062Z,19.23
2024-01-16T14:36:25.116Z,19.23
2024-01-16T14:38:52.649Z,19.24
2024-01-16T14:41:19.384Z,19.26
2024-01-16T14:43:46.650Z,19.27
2024-01-16T14:46:13.477Z,19.27
2024-01-16T14:48:45.174Z,19.28
2024-01-16T14:51:11.751Z,19.31
2024-01-16T14:53:38.397Z,19.31
2024-01-16T14:56:06.348Z,19.31
2024-01-16T14:58:33.219Z,19.31
2024-01-16T15:00:59.745Z,19.31
2024-01-16T15:03:26.258Z,19.30
2024-01-16T15:05:54.478Z,19.29
2024-01-16T15:08:20.959Z,19.28
2024-01-16T15:10:47.435Z,19.28
2024-01-16T15:13:13.901Z,19.29
2024-01-16T15:15:40.331Z,19.29
2024-01-16T15:18:06.891Z,19.28
2024-01-16T15:20:33.370Z,19.28
2024-01-16T15:22:59.784Z,19.27
2024-01-16T15:25:26.622Z,19.28
2024-01-16T15:27:56.109Z,19.31
2024-01-16T15:30:23.189Z,19.31
2024-01-16T15:32:50.238Z,19.31
2024-01-16T15:35:16.945Z,19.28
2024-01-16T15:37:45.262Z,19.29
2024-01-16T15:40:14.230Z,19.30
2024-01-16T15:42:42.039Z,19.29
2024-01-16T15:45:09.011Z,19.28
2024-01-16T15:47:36.540Z,19.29
2024-01-16T15:50:07.883Z,19.31
2024-01-16T15:52:34.661Z,19.31
2024-01-16T15:55:01.575Z,19.30
2024-01-16T15:57:29.165Z,19.28
2024-01-16T15:59:55.941Z,19.28
2024-01-16T16:02:22.438Z,19.27
2024-01-16T16:04:48.924Z,19.28
2024-01-16T16:07:15.316Z,19.29
2024-01-16T16:09:41.948Z,19.26
2024-01-16T16:12:08.610Z,19.25
2024-01-16T16:14:41.450Z,19.25
2024-01-16T16:17:09.876Z,19.24
2024-01-16T16:19:37.181Z,19.25
2024-01-16T16:22:08.061Z,19.27
2024-01-16T16:24:36.060Z,19.29
2024-01-16T16:27:04.782Z,19.30
2024-01-16T16:29:31.246Z,19.30
2024-01-16T16:31:59.259Z,19.31
2024-01-16T16:34:25.791Z,19.31
2024-01-16T16:36:52.823Z,19.33
2024-01-16T16:39:19.439Z,19.32
2024-01-16T16:41:46.128Z,19.30
2024-01-16T16:44:12.632Z,19.27
2024-01-16T16:46:39.749Z,19.27
2024-01-16T16:49:06.317Z,19.26
2024-01-16T16:51:35.099Z,19.25
2024-01-16T16:54:01.521Z,19.26
2024-01-16T16:56:28.012Z,19.24
2024-01-16T16:58:54.459Z,19.24
2024-01-16T17:01:21.042Z,19.22
2024-01-16T17:03:50.118Z,19.23
2024-01-16T17:06:16.847Z,19.19
2024-01-16T17:08:46.591Z,19.15
2024-01-16T17:11:13.940Z,19.13
2024-01-16T17:13:41.539Z,19.12
2024-01-16T17:16:11.583Z,19.10
2024-01-16T17:18:39.580Z,19.10
2024-01-16T17:21:06.918Z,19.08
2024-01-16T17:23:33.725Z,19.08
2024-01-16T17:26:00.603Z,19.09
2024-01-16T17:28:29.201Z,19.07
2024-01-16T17:30:56.156Z,19.08
2024-01-16T17:33:22.953Z,19.04
2024-01-16T17:35:49.709Z,19.03
2024-01-16T17:38:16.363Z,19.00
2024-01-16T17:40:42.967Z,18.98
2024-01-16T17:43:09.462Z,18.97
2024-01-16T17:45:35.824Z,18.95
2024-01-16T17:48:02.356Z,18.94
2024-01-16T17:50:28.988Z,18.94
2024-01-16T17:52:55.813Z,18.91
2024-01-16T17:55:24.162Z,18.89
2024-01-16T17:57:51.120Z,18.88
2024-01-16T18:00:18.093Z,18.88
2024-01-16T18:02:44.526Z,18.89
2024-01-16T18:05:17.913Z,18.87
2024-01-16T18:07:44.560Z,18.86
2024-01-16T18:10:11.058Z,18.85
2024-01-16T18:12:38.465Z,18.82
2024-01-16T18:15:14.410Z,18.81
2024-01-16T18:17:40.937Z,18.80
2024-01-16T18:20:11.325Z,18.82
2024-01-16T18:22:38.137Z,18.82
2024-01-16T18:25:09.613Z,18.83
2024-01-16T18:27:39.388Z,18.84
2024-01-16T18:30:06.198Z,18.84
2024-01-16T18:32:33.939Z,18.85
2024-01-16T18:35:00.736Z,18.82
2024-01-16T18:37:27.188Z,18.83
2024-01-16T18:39:54.307Z,18.83
2024-01-16T18:42:23.597Z,18.82
2024-01-16T18:44:50.061Z,18.84
2024-01-16T18:47:21.800Z,18.85
2024-01-16T18:49:48.913Z,18.82
2024-01-16T18:52:16.165Z,18.82
2024-01-16T18:54:42.552Z,18.82
2024-01-16T18:57:08.989Z,18.81
2024-01-16T18:59:35.652Z,18.80
2024-01-16T19:02:04.178Z,18.81
2024-01-16T19:04:33.583Z,18.82
2024-01-16T19:07:01.125Z,18.82
2024-01-16T19:09:33.064Z,18.82
2024-01-16T19:11:59.568Z,18.81
2024-01-16T19:14:25.987Z,18.80
2024-01-16T19:16:52.483Z,18.80
2024-01-16T19:19:21.711Z,18.79
2024-01-16T19:21:48.160Z,18.79
2024-01-16T19:24:15.906Z,18.79
2024-01-16T19:26:44.717Z,18.80
2024-01-16T19:29:11.200Z,18.79
2024-01-16T19:31:37.611Z,18.80
2024-01-16T19:34:05.529Z,18.79
2024-01-16T19:36:32.011Z,18.79
2024-01-16T19:38:58.533Z,18.79
2024-01-16T19:41:25.299Z,18.79
2024-01-16T19:43:51.730Z,18.80
2024-01-16T19:46:18.267Z,18.79
2024-01-16T19:48:44.839Z,18.79
2024-01-16T19:51:11.478Z,18.80
2024-01-16T19:53:39.628Z,18.79
2024-01-16T19:56:08.330Z,18.80
2024-01-16T19:58:36.478Z,18.78
2024-01-16T20:01:03.976Z,18.79
2024-01-16T20:03:32.489Z,18.79
2024-01-16T20:05:59.130Z,18.79
2024-01-16T20:08:27.192Z,18.78
2024-01-16T20:10:53.642Z,18.77
2024-01-16T20:13:20.143Z,18.78
2024-01-16T20:15:49.772Z,18.77
2024-01-16T20:18:16.502Z,18.77
2024-01-16T20:20:43.049Z,18.77
2024-01-16T20:23:09.668Z,18.78
2024-01-16T20:25:36.208Z,18.79
2024-01-16T20:28:05.064Z,18.81
2024-01-16T20:30:31.775Z,18.78
2024-01-16T20:32:58.351Z,18.76
2024-01-16T20:35:25.240Z,18.77
2024-01-16T20:37:51.801Z,18.77
2024-01-16T20:40:18.376Z,18.75
2024-01-16T20:42:44.896Z,18.73
2024-01-16T20:45:11.419Z,18.72
2024-01-16T20:47:39.358Z,18.71
2024-01-16T20:50:07.052Z,18.71
2024-01-16T20:52:34.590Z,18.70
2024-01-16T20:55:04.286Z,18.68
2024-01-16T20:57:33.217Z,18.69
2024-01-16T20:59:59.848Z,18.72
2024-01-16T21:02:26.360Z,18.73
2024-01-16T21:04:53.185Z,18.71
2024-01-16T21:07:19.895Z,18.70
2024-01-16T21:09:46.483Z,18.72
2024-01-16T21:12:14.094Z,18.72
2024-01-16T21:14:40.614Z,18.71
2024-01-16T21:17:08.327Z,18.71
2024-01-16T21:19:36.430Z,18.71
2024-01-16T21:22:03.075Z,18.71
2024-01-16T21:24:29.788Z,18.69
2024-01-16T21:26:56.818Z,18.70
2024-01-16T21:29:24.357Z,18.69
2024-01-16T21:31:54.215Z,18.69
2024-01-16T21:34:24.551Z,18.69
2024-01-16T21:36:52.888Z,18.69
2024-01-16T21:39:21.221Z,18.68
2024-01-16T21:41:47.754Z,18.69
2024-01-16T21:44:14.668Z,18.69
2024-01-16T21:46:43.104Z,18.70
2024-01-16T21:49:10.220Z,18.69
2024-01-16T21:51:36.794Z,18.66
2024-01-16T21:54:04.038Z,18.67
2024-01-16T21:56:30.544Z,18.68
2024-01-16T21:58:57.548Z,18.66
2024-01-16T22:01:23.999Z,18.67
2024-01-16T22:03:51.251Z,18.66
2024-01-16T22:06:17.936Z,18.67
2024-01-16T22:08:51.137Z,18.67
2024-01-16T22:11:17.955Z,18.66
2024-01-16T22:13:45.421Z,18.65
2024-01-16T22:16:12.984Z,18.66
2024-01-16T22:18:39.542Z,18.64
2024-01-16T22:21:06.221Z,18.66
2024-01-16T22:23:32.750Z,18.64
2024-01-16T22:26:01.401Z,18.65
2024-01-16T22:28:30.965Z,18.64
2024-01-16T22:30:57.534Z,18.62
2024-01-16T22:33:24.514Z,18.64
2024-01-16T22:35:51.143Z,18.64
2024-01-16T22:38:19.283Z,18.63
2024-01-16T22:40:45.936Z,18.63
2024-01-16T22:43:12.339Z,18.63
2024-01-16T22:45:38.795Z,18.65
2024-01-16T22:48:11.887Z,18.69
2024-01-16T22:50:40.265Z,18.69
2024-01-16T22:53:07.656Z,18.70
2024-01-16T22:55:34.822Z,18.71
2024-01-16T22:58:02.079Z,18.71
2024-01-16T23:00:30.398Z,18.70
2024-01-16T23:02:58.002Z,18.71
2024-01-16T23:05:27.048Z,18.72
2024-01-16T23:07:54.695Z,18.74
2024-01-16T23:10:21.134Z,18.74
2024-01-16T23:12:47.555Z,18.72
2024-01-16T23:15:13.984Z,18.72
2024-01-16T23:17:40.549Z,18.70
2024-01-16T23:20:14.182Z,18.70
2024-01-16T23:22:41.828Z,18.70
2024-01-16T23:25:10.644Z,18.70
2024-01-16T23:27:41.687Z,18.71
2024-01-16T23:30:09.315Z,18.72
2024-01-16T23:32:36.153Z,18.71
2024-01-16T23:35:02.737Z,18.69
2024-01-16T23:37:31.215Z,18.67
2024-01-16T23:39:58.093Z,18.67
2024-01-16T23:42:25.604Z,18.66
2024-01-16T23:44:53.077Z,18.66
2024-01-16T23:47:19.537Z,18.65
2024-01-16T23:49:46.553Z,18.64
2024-01-16T23:52:14.491Z,18.65
2024-01-16T23:54:41.983Z,18.64
2024-01-16T23:57:08.831Z,18.62
2024-01-16T23:59:35.612Z,18.60
